Time,TemperatureF,DewpointF,PressureIn,WindDirection,WindDirectionDegrees,WindSpeedMPH,WindSpeedGustMPH,Humidity,HourlyPrecipIn,Conditions,Clouds,dailyrainin,SolarRadiationWatts/m^2,SoftwareType,DateUTC
2013-01-11 00:03:00,58.0,55.4,30.03,South,184,1.1,1.1,91,0.00,CLR,SKC,0.00,0.0,WeatherDisplay:10.37,2013-01-11 06:03:00,
2013-01-11 00:08:00,58.1,55.8,30.03,South,189,1.1,1.1,92,0.00,CLR,SKC,0.00,0.0,WeatherDisplay:10.37,2013-01-11 06:08:00,
2013-01-11 00:13:00,58.1,55.5,30.03,South,188,1.1,0.0,91,0.00,CLR,SKC,0.00,0.0,WeatherDisplay:10.37,2013-01-11 06:13:00,
2013-01-11 00:18:00,58.1,55.8,30.03,SSE,167,1.1,1.1,92,0.00,CLR,SKC,0.00,0.0,WeatherDisplay:10.37,2013-01-11 06:18:00,
2013-01-11 00:23:00,58.0,55.7,30.03,SSW,206,2.0,0.0,92,0.00,CLR,SKC,0.00,0.0,WeatherDisplay:10.37,2013-01-11 06:23:00,
2013-01-11 00:28:00,58.1,55.8,30.02,SSW,195,1.1,1.1,92,0.00,CLR,SKC,0.00,0.0,WeatherDisplay:10.37,2013-01-11 06:28:00,
2013-01-11 00:33:00,58.0,55.7,30.02,SSW,197,2.3,2.3,92,0.00,CLR,SKC,0.00,0.0,WeatherDisplay:10.37,2013-01-11 06:33:00,
2013-01-11 00:38:00,58.1,55.8,30.02,South,188,1.1,1.1,92,0.00,CLR,SKC,0.00,0.0,WeatherDisplay:10.37,2013-01-11 06:38:00,
2013-01-11 00:43:00,58.2,55.9,30.02,SSE,167,3.5,3.5,92,0.00,CLR,SKC,0.00,0.0,WeatherDisplay:10.37,2013-01-11 06:43:00,
2013-01-11 00:48:00,58.3,56.0,30.02,SSE,148,3.5,3.5,92,0.00,CLR,SKC,0.00,0.0,WeatherDisplay:10.37,2013-01-11 06:48:00,
2013-01-11 00:53:00,58.5,56.5,30.02,SSE,162,3.5,3.5,93,0.00,CLR,SKC,0.00,0.0,WeatherDisplay:10.37,2013-01-11 06:53:00,
2013-01-11 00:58:00,58.6,56.6,30.02,SSE,157,3.5,3.5,93,0.00,CLR,SKC,0.00,0.0,WeatherDisplay:10.37,2013-01-11 06:58:00,
2013-01-11 01:03:00,58.7,56.4,30.02,South,186,3.5,3.5,92,0.00,CLR,SKC,0.00,0.0,WeatherDisplay:10.37,2013-01-11 07:03:00,
2013-01-11 01:08:00,58.7,56.4,30.02,SSW,211,3.5,3.5,92,0.00,CLR,SKC,0.00,0.0,WeatherDisplay:10.37,2013-01-11 07:08:00,
2013-01-11 01:13:00,58.7,56.4,30.01,South,174,1.1,1.1,92,0.00,CLR,SKC,0.00,0.0,WeatherDisplay:10.37,2013-01-11 07:13:00,
2013-01-11 01:18:00,58.7,56.4,30.01,South,186,4.0,4.0,92,0.00,CLR,SKC,0.00,0.0,WeatherDisplay:10.37,2013-01-11 07:18:00,
2013-01-11 01:23:00,58.7,56.4,30.01,South,177,3.0,3.0,92,0.00,CLR,SKC,0.00,0.0,WeatherDisplay:10.37,2013-01-11 07:23:00,
2013-01-11 01:28:00,58.7,56.4,30.01,SSE,151,3.5,3.5,92,0.00,CLR,SKC,0.00,0.0,WeatherDisplay:10.37,2013-01-11 07:28:00,
2013-01-11 01:33:00,58.7,56.4,30.01,SE,138,3.5,3.5,92,0.00,CLR,SKC,0.00,0.0,WeatherDisplay:10.37,2013-01-11 07:33:00,
2013-01-11 01:38:00,58.8,56.5,30.01,SSE,155,3.5,3.5,92,0.00,CLR,SKC,0.00,0.0,WeatherDisplay:10.37,2013-01-11 07:38:00,
2013-01-11 01:43:00,58.8,56.5,30.01,SSE,148,2.3,2.3,92,0.00,CLR,SKC,0.00,0.0,WeatherDisplay:10.37,2013-01-11 07:43:00,
2013-01-11 01:48:00,58.7,56.7,30.01,SE,124,3.5,3.5,93,0.00,CLR,SKC,0.00,0.0,WeatherDisplay:10.37,2013-01-11 07:48:00,
2013-01-11 01:53:00,58.8,56.8,30.01,SSE,168,5.8,5.8,93,0.00,CLR,SKC,0.00,0.0,WeatherDisplay:10.37,2013-01-11 07:53:00,
2013-01-11 01:58:00,58.7,56.7,30.00,South,169,3.5,3.5,93,0.00,CLR,SKC,0.00,0.0,WeatherDisplay:10.37,2013-01-11 07:58:00,
2013-01-11 02:03:00,58.7,56.7,30.00,South,171,3.5,3.5,93,0.00,CLR,SKC,0.00,0.0,WeatherDisplay:10.37,2013-01-11 08:03:00,
2013-01-11 02:08:00,58.7,56.7,30.00,SSE,163,1.1,1.1,93,0.00,CLR,SKC,0.00,0.0,WeatherDisplay:10.37,2013-01-11 08:08:00,
2013-01-11 02:13:00,58.6,56.6,30.00,South,187,3.5,3.5,93,0.00,CLR,SKC,0.00,0.0,WeatherDisplay:10.37,2013-01-11 08:13:00,
2013-01-11 02:18:00,58.6,56.6,30.00,South,187,3.5,3.5,93,0.00,CLR,SKC,0.00,0.0,WeatherDisplay:10.37,2013-01-11 08:18:00,
2013-01-11 02:23:00,58.5,56.5,30.00,South,179,1.1,0.0,93,0.00,CLR,SKC,0.00,0.0,WeatherDisplay:10.37,2013-01-11 08:23:00,
2013-01-11 02:28:00,58.5,56.5,29.99,SSE,149,0.0,0.0,93,0.00,CLR,SKC,0.00,0.0,WeatherDisplay:10.37,2013-01-11 08:28:00,
2013-01-11 02:33:00,58.4,56.4,29.99,SE,131,0.0,0.0,93,0.00,CLR,SKC,0.00,0.0,WeatherDisplay:10.37,2013-01-11 08:33:00,
2013-01-11 02:38:00,58.3,56.3,29.99,SE,131,0.0,0.0,93,0.00,CLR,SKC,0.00,0.0,WeatherDisplay:10.37,2013-01-11 08:38:00,
2013-01-11 02:43:00,58.3,56.3,29.99,South,184,1.1,1.1,93,0.00,CLR,SKC,0.00,0.0,WeatherDisplay:10.37,2013-01-11 08:43:00,
2013-01-11 02:48:00,58.3,56.3,29.99,South,184,0.0,0.0,93,0.00,CLR,SKC,0.00,0.0,WeatherDisplay:10.37,2013-01-11 08:48:00,
2013-01-11 02:53:00,58.3,56.3,29.99,South,180,0.0,0.1,93,0.00,CLR,SKC,0.00,0.0,WeatherDisplay:10.37,2013-01-11 08:53:00,
2013-01-11 02:58:00,58.3,56.3,29.99,South,176,1.1,1.1,93,0.00,CLR,SKC,0.00,0.0,WeatherDisplay:10.37,2013-01-11 08:58:00,
2013-01-11 03:03:00,58.1,56.1,29.99,South,176,0.0,0.0,93,0.00,CLR,SKC,0.00,0.0,WeatherDisplay:10.37,2013-01-11 09:03:00,
2013-01-11 03:08:00,58.0,56.3,29.99,South,180,0.0,0.0,94,0.00,CLR,SKC,0.00,0.0,WeatherDisplay:10.37,2013-01-11 09:08:00,
2013-01-11 03:13:00,58.0,56.3,29.99,SSW,192,0.0,0.0,94,0.00,CLR,SKC,0.00,0.0,WeatherDisplay:10.37,2013-01-11 09:13:00,
2013-01-11 03:18:00,57.9,56.2,29.99,SSW,192,1.1,1.1,94,0.00,CLR,SKC,0.00,0.0,WeatherDisplay:10.37,2013-01-11 09:18:00,
2013-01-11 03:23:00,57.9,56.2,29.99,South,191,0.0,0.0,94,0.00,CLR,SKC,0.00,0.0,WeatherDisplay:10.37,2013-01-11 09:23:00,
2013-01-11 03:28:00,57.8,56.1,29.98,South,191,0.0,0.0,94,0.00,CLR,SKC,0.00,0.0,WeatherDisplay:10.37,2013-01-11 09:28:00,
2013-01-11 03:33:00,57.6,55.9,29.98,SSW,192,0.0,0.0,94,0.00,CLR,SKC,0.00,0.0,WeatherDisplay:10.37,2013-01-11 09:33:00,
2013-01-11 03:38:00,57.5,55.8,29.98,South,191,0.0,0.0,94,0.00,CLR,SKC,0.00,0.0,WeatherDisplay:10.37,2013-01-11 09:38:00,
2013-01-11 03:43:00,57.4,55.7,29.98,SSW,192,0.0,0.0,94,0.00,CLR,SKC,0.00,0.0,WeatherDisplay:10.37,2013-01-11 09:43:00,
2013-01-11 03:48:00,57.3,55.6,29.98,South,191,0.0,0.0,94,0.00,CLR,SKC,0.00,0.0,WeatherDisplay:10.37,2013-01-11 09:48:00,
2013-01-11 03:53:00,57.3,55.6,29.98,South,191,0.0,0.0,94,0.00,CLR,SKC,0.00,0.0,WeatherDisplay:10.37,2013-01-11 09:53:00,
2013-01-11 03:58:00,57.3,55.6,29.97,South,191,0.0,0.0,94,0.00,CLR,SKC,0.00,0.0,WeatherDisplay:10.37,2013-01-11 09:58:00,
2013-01-11 04:03:00,57.3,55.6,29.97,South,191,0.0,0.0,94,0.00,CLR,SKC,0.00,0.0,WeatherDisplay:10.37,2013-01-11 10:03:00,
2013-01-11 04:08:00,57.2,55.5,29.97,South,191,0.0,0.0,94,0.00,CLR,SKC,0.00,0.0,WeatherDisplay:10.37,2013-01-11 10:08:00,
2013-01-11 04:13:00,57.2,55.8,29.96,South,191,1.1,0.0,95,0.00,CLR,SKC,0.00,0.0,WeatherDisplay:10.37,2013-01-11 10:13:00,
2013-01-11 04:18:00,57.3,55.9,29.96,SSW,192,0.0,0.0,95,0.00,CLR,SKC,0.00,0.0,WeatherDisplay:10.37,2013-01-11 10:18:00,
2013-01-11 04:23:00,57.3,55.9,29.96,South,191,1.0,0.0,95,0.00,CLR,SKC,0.00,0.0,WeatherDisplay:10.37,2013-01-11 10:23:00,
2013-01-11 04:28:00,57.2,55.8,29.96,South,191,0.0,0.0,95,0.00,CLR,SKC,0.00,0.0,WeatherDisplay:10.37,2013-01-11 10:28:00,
2013-01-11 04:33:00,57.1,55.7,29.96,South,191,0.0,0.0,95,0.00,CLR,SKC,0.00,0.0,WeatherDisplay:10.37,2013-01-11 10:33:00,
2013-01-11 04:38:00,57.1,55.7,29.96,South,191,0.0,0.0,95,0.00,CLR,SKC,0.00,0.0,WeatherDisplay:10.37,2013-01-11 10:38:00,
2013-01-11 04:43:00,57.0,55.6,29.96,South,191,1.1,0.0,95,0.00,CLR,SKC,0.00,0.0,WeatherDisplay:10.37,2013-01-11 10:43:00,
2013-01-11 04:48:00,57.1,55.7,29.96,South,191,0.0,0.0,95,0.00,CLR,SKC,0.00,0.0,WeatherDisplay:10.37,2013-01-11 10:48:00,
2013-01-11 04:53:00,57.2,55.8,29.96,South,191,0.0,0.0,95,0.00,CLR,SKC,0.00,0.0,WeatherDisplay:10.37,2013-01-11 10:53:00,
2013-01-11 04:58:00,57.3,56.2,29.95,South,191,0.0,0.0,96,0.00,CLR,SKC,0.00,0.0,WeatherDisplay:10.37,2013-01-11 10:58:00,
2013-01-11 05:03:00,57.3,55.9,29.95,South,191,0.0,0.0,95,0.00,CLR,SKC,0.00,0.0,WeatherDisplay:10.37,2013-01-11 11:03:00,
2013-01-11 05:08:00,57.3,55.9,29.95,South,191,0.0,0.0,95,0.00,CLR,SKC,0.00,0.0,WeatherDisplay:10.37,2013-01-11 11:08:00,
2013-01-11 05:13:00,57.2,55.8,29.95,South,191,0.0,0.0,95,0.00,CLR,SKC,0.00,0.0,WeatherDisplay:10.37,2013-01-11 11:13:00,
2013-01-11 05:18:00,57.1,55.7,29.95,South,191,0.0,0.0,95,0.00,CLR,SKC,0.00,0.0,WeatherDisplay:10.37,2013-01-11 11:18:00,
2013-01-11 05:23:00,57.0,55.6,29.95,South,191,0.0,0.0,95,0.00,CLR,SKC,0.00,0.0,WeatherDisplay:10.37,2013-01-11 11:23:00,
2013-01-11 05:28:00,57.0,55.9,29.95,SSW,192,0.0,0.0,96,0.00,CLR,SKC,0.00,0.0,WeatherDisplay:10.37,2013-01-11 11:28:00,
2013-01-11 05:33:00,57.1,56.0,29.95,South,191,0.0,0.0,96,0.00,CLR,SKC,0.00,0.0,WeatherDisplay:10.37,2013-01-11 11:33:00,
2013-01-11 05:38:00,57.0,55.6,29.95,South,191,0.0,0.0,95,0.00,CLR,SKC,0.00,0.0,WeatherDisplay:10.37,2013-01-11 11:38:00,
2013-01-11 05:43:00,57.0,55.9,29.94,South,191,0.0,0.0,96,0.00,CLR,SKC,0.00,0.0,WeatherDisplay:10.37,2013-01-11 11:43:00,
2013-01-11 05:48:00,57.0,55.9,29.94,South,191,0.0,0.0,96,0.00,CLR,SKC,0.00,0.0,WeatherDisplay:10.37,2013-01-11 11:48:00,
2013-01-11 05:53:00,56.9,55.5,29.94,SSW,192,0.0,0.0,95,0.00,CLR,SKC,0.00,0.0,WeatherDisplay:10.37,2013-01-11 11:53:00,
2013-01-11 05:58:00,56.7,55.3,29.94,South,191,0.0,0.0,95,0.00,CLR,SKC,0.00,0.0,WeatherDisplay:10.37,2013-01-11 11:58:00,
2013-01-11 06:03:00,56.6,55.5,29.94,SSW,192,0.0,0.0,96,0.00,CLR,SKC,0.00,0.0,WeatherDisplay:10.37,2013-01-11 12:03:00,
2013-01-11 06:08:00,56.5,55.1,29.94,South,191,0.0,0.0,95,0.00,CLR,SKC,0.00,0.0,WeatherDisplay:10.37,2013-01-11 12:08:00,
2013-01-11 06:13:00,56.6,55.5,29.94,South,191,0.0,0.0,96,0.00,CLR,SKC,0.00,0.0,WeatherDisplay:10.37,2013-01-11 12:13:00,
2013-01-11 06:18:00,56.7,55.6,29.94,South,191,0.0,0.0,96,0.00,CLR,SKC,0.00,0.0,WeatherDisplay:10.37,2013-01-11 12:18:00,
2013-01-11 06:23:00,56.8,55.7,29.94,South,191,0.0,0.0,96,0.00,CLR,SKC,0.00,0.0,WeatherDisplay:10.37,2013-01-11 12:23:00,
2013-01-11 06:28:00,56.8,55.7,29.94,South,191,0.0,0.0,96,0.00,CLR,SKC,0.00,0.0,WeatherDisplay:10.37,2013-01-11 12:28:00,
2013-01-11 06:33:00,56.8,55.7,29.94,South,191,0.0,0.0,96,0.00,CLR,SKC,0.00,0.0,WeatherDisplay:10.37,2013-01-11 12:33:00,
2013-01-11 06:38:00,56.7,55.6,29.94,South,191,0.0,0.0,96,0.00,CLR,SKC,0.00,0.0,WeatherDisplay:10.37,2013-01-11 12:38:00,
2013-01-11 06:43:00,56.5,55.4,29.95,South,191,0.0,0.0,96,0.00,CLR,SKC,0.00,0.0,WeatherDisplay:10.37,2013-01-11 12:43:00,
2013-01-11 06:48:00,56.4,55.3,29.95,South,191,0.0,0.0,96,0.00,CLR,SKC,0.00,0.0,WeatherDisplay:10.37,2013-01-11 12:48:00,
2013-01-11 06:53:00,56.4,55.3,29.95,South,191,0.0,0.0,96,0.00,CLR,SKC,0.00,0.0,WeatherDisplay:10.37,2013-01-11 12:53:00,
2013-01-11 06:58:00,56.4,55.3,29.95,South,191,0.0,0.0,96,0.00,CLR,SKC,0.00,0.0,WeatherDisplay:10.37,2013-01-11 12:58:00,
2013-01-11 07:03:00,56.3,55.2,29.95,South,191,0.0,0.0,96,0.00,CLR,SKC,0.00,0.0,WeatherDisplay:10.37,2013-01-11 13:03:00,
2013-01-11 07:08:00,56.4,55.3,29.95,South,191,0.0,0.0,96,0.00,CLR,SKC,0.00,0.0,WeatherDisplay:10.37,2013-01-11 13:08:00,
2013-01-11 07:13:00,56.4,55.3,29.95,South,191,0.0,0.0,96,0.00,CLR,SKC,0.00,7.0,WeatherDisplay:10.37,2013-01-11 13:13:00,
2013-01-11 07:18:00,56.6,55.5,29.95,South,191,1.1,0.0,96,0.00,CLR,SKC,0.00,5.0,WeatherDisplay:10.37,2013-01-11 13:18:00,
2013-01-11 07:23:00,56.8,56.0,29.95,SE,146,2.3,2.3,97,0.00,CLR,SKC,0.00,7.0,WeatherDisplay:10.37,2013-01-11 13:23:00,
2013-01-11 07:28:00,56.9,55.8,29.94,SE,146,0.0,0.0,96,0.00,CLR,SKC,0.00,11.0,WeatherDisplay:10.37,2013-01-11 13:28:00,
2013-01-11 07:33:00,56.9,55.8,29.94,SE,146,0.0,0.0,96,0.00,CLR,SKC,0.00,18.0,WeatherDisplay:10.37,2013-01-11 13:33:00,
2013-01-11 07:38:00,56.9,55.8,29.94,SE,146,0.0,0.0,96,0.00,CLR,SKC,0.00,26.0,WeatherDisplay:10.37,2013-01-11 13:38:00,
2013-01-11 07:43:00,56.9,56.1,29.95,SE,146,0.0,0.0,97,0.00,CLR,SKC,0.00,37.0,WeatherDisplay:10.37,2013-01-11 13:43:00,
2013-01-11 07:48:00,57.0,55.9,29.95,SE,146,0.0,0.0,96,0.00,CLR,SKC,0.00,35.0,WeatherDisplay:10.37,2013-01-11 13:48:00,
2013-01-11 07:53:00,57.0,56.2,29.95,SE,146,0.0,0.0,97,0.00,CLR,SKC,0.00,33.0,WeatherDisplay:10.37,2013-01-11 13:53:00,
2013-01-11 07:58:00,57.2,56.4,29.95,SE,146,0.0,0.0,97,0.00,CLR,SKC,0.00,23.0,WeatherDisplay:10.37,2013-01-11 13:58:00,
2013-01-11 08:03:00,57.3,56.5,29.95,SE,146,0.0,0.0,97,0.00,CLR,SKC,0.00,28.0,WeatherDisplay:10.37,2013-01-11 14:03:00,
2013-01-11 08:08:00,57.4,56.6,29.95,SE,146,0.0,0.0,97,0.00,CLR,SKC,0.00,46.0,WeatherDisplay:10.37,2013-01-11 14:08:00,
2013-01-11 08:13:00,57.5,56.7,29.96,SE,146,0.0,0.0,97,0.00,CLR,SKC,0.00,51.0,WeatherDisplay:10.37,2013-01-11 14:13:00,
2013-01-11 08:18:00,57.6,56.8,29.96,SE,146,0.0,0.0,97,0.00,CLR,SKC,0.00,60.0,WeatherDisplay:10.37,2013-01-11 14:18:00,
2013-01-11 08:23:00,57.8,57.0,29.96,SE,146,0.0,0.0,97,0.00,CLR,SKC,0.00,81.0,WeatherDisplay:10.37,2013-01-11 14:23:00,
2013-01-11 08:28:00,58.1,57.3,29.95,SE,146,0.0,0.0,97,0.00,CLR,SKC,0.00,74.0,WeatherDisplay:10.37,2013-01-11 14:28:00,
2013-01-11 08:33:00,58.4,57.6,29.95,SE,146,0.0,0.0,97,0.00,CLR,SKC,0.00,105.0,WeatherDisplay:10.37,2013-01-11 14:33:00,
2013-01-11 08:38:00,58.9,58.3,29.95,SE,146,0.0,0.0,98,0.00,CLR,SKC,0.00,97.0,WeatherDisplay:10.37,2013-01-11 14:38:00,
2013-01-11 08:43:00,59.2,58.3,29.95,SE,146,0.0,0.0,97,0.00,CLR,SKC,0.00,123.0,WeatherDisplay:10.37,2013-01-11 14:43:00,
2013-01-11 08:48:00,59.7,58.8,29.95,SE,146,0.0,0.0,97,0.00,CLR,SKC,0.00,135.0,WeatherDisplay:10.37,2013-01-11 14:48:00,
2013-01-11 08:53:00,60.5,59.6,29.95,SE,146,0.0,0.0,97,0.00,CLR,SKC,0.00,253.0,WeatherDisplay:10.37,2013-01-11 14:53:00,
2013-01-11 08:58:00,61.2,60.3,29.95,SE,146,0.0,0.0,97,0.00,CLR,SKC,0.00,271.0,WeatherDisplay:10.37,2013-01-11 14:58:00,
2013-01-11 09:03:00,61.9,61.3,29.95,SE,146,0.0,0.0,98,0.00,CLR,SKC,0.00,292.0,WeatherDisplay:10.37,2013-01-11 15:03:00,
2013-01-11 09:08:00,62.9,62.3,29.95,SE,127,4.6,4.6,98,0.00,CLR,SKC,0.00,264.0,WeatherDisplay:10.37,2013-01-11 15:08:00,
2013-01-11 09:13:00,63.4,62.8,29.95,SE,137,3.5,3.5,98,0.00,CLR,SKC,0.00,332.0,WeatherDisplay:10.37,2013-01-11 15:13:00,
2013-01-11 09:18:00,63.8,62.9,29.95,SE,128,2.3,2.3,97,0.00,CLR,SKC,0.00,345.0,WeatherDisplay:10.37,2013-01-11 15:18:00,
2013-01-11 09:23:00,64.0,63.1,29.95,ESE,107,3.5,3.5,97,0.00,CLR,SKC,0.00,360.0,WeatherDisplay:10.37,2013-01-11 15:23:00,
2013-01-11 09:28:00,63.9,63.0,29.95,SE,139,3.5,3.5,97,0.00,CLR,SKC,0.00,411.0,WeatherDisplay:10.37,2013-01-11 15:28:00,
2013-01-11 09:33:00,64.2,63.3,29.95,SE,126,3.5,3.5,97,0.00,CLR,SKC,0.00,380.0,WeatherDisplay:10.37,2013-01-11 15:33:00,
2013-01-11 09:38:00,64.5,63.6,29.95,ESE,105,3.5,3.5,97,0.00,CLR,SKC,0.00,401.0,WeatherDisplay:10.37,2013-01-11 15:38:00,
2013-01-11 09:43:00,64.7,63.8,29.95,SE,134,4.6,4.6,97,0.00,CLR,SKC,0.00,394.0,WeatherDisplay:10.37,2013-01-11 15:43:00,
2013-01-11 09:48:00,64.8,63.9,29.95,ESE,115,5.0,5.0,97,0.00,CLR,SKC,0.00,373.0,WeatherDisplay:10.37,2013-01-11 15:48:00,
2013-01-11 09:53:00,64.6,63.7,29.95,ESE,111,4.6,4.6,97,0.00,CLR,SKC,0.00,285.0,WeatherDisplay:10.37,2013-01-11 15:53:00,
2013-01-11 09:58:00,64.4,63.2,29.95,ESE,114,5.8,5.8,96,0.00,CLR,SKC,0.00,346.0,WeatherDisplay:10.37,2013-01-11 15:58:00,
2013-01-11 10:03:00,64.4,63.2,29.95,SE,130,7.0,7.0,96,0.00,CLR,SKC,0.00,329.0,WeatherDisplay:10.37,2013-01-11 16:03:00,
2013-01-11 10:08:00,64.3,63.1,29.95,ESE,113,6.9,6.9,96,0.00,CLR,SKC,0.00,172.0,WeatherDisplay:10.37,2013-01-11 16:08:00,
2013-01-11 10:13:00,64.2,63.0,29.95,ESE,117,6.9,6.9,96,0.00,CLR,SKC,0.00,151.0,WeatherDisplay:10.37,2013-01-11 16:13:00,
2013-01-11 10:18:00,64.2,63.0,29.95,SE,129,4.6,4.6,96,0.00,CLR,SKC,0.00,366.0,WeatherDisplay:10.37,2013-01-11 16:18:00,
2013-01-11 10:23:00,64.4,63.2,29.95,SE,126,4.6,4.6,96,0.00,CLR,SKC,0.00,446.0,WeatherDisplay:10.37,2013-01-11 16:23:00,
2013-01-11 10:28:00,65.0,63.8,29.94,SSE,147,3.5,4.0,96,0.00,CLR,SKC,0.00,388.0,WeatherDisplay:10.37,2013-01-11 16:28:00,
2013-01-11 10:33:00,65.6,64.4,29.94,SSE,153,5.8,5.8,96,0.00,CLR,SKC,0.00,221.0,WeatherDisplay:10.37,2013-01-11 16:33:00,
2013-01-11 10:38:00,65.7,64.5,29.94,SE,125,4.6,4.6,96,0.00,CLR,SKC,0.00,352.0,WeatherDisplay:10.37,2013-01-11 16:38:00,
2013-01-11 10:43:00,65.8,64.3,29.94,SE,130,4.6,4.6,95,0.00,CLR,SKC,0.00,290.0,WeatherDisplay:10.37,2013-01-11 16:43:00,
2013-01-11 10:48:00,65.9,64.4,29.94,ESE,117,3.5,3.5,95,0.00,CLR,SKC,0.00,274.0,WeatherDisplay:10.37,2013-01-11 16:48:00,
2013-01-11 10:53:00,65.9,64.4,29.94,ESE,114,5.8,5.8,95,0.00,CLR,SKC,0.00,216.0,WeatherDisplay:10.37,2013-01-11 16:53:00,
2013-01-11 10:58:00,66.0,64.5,29.94,ESE,123,3.5,3.5,95,0.00,CLR,SKC,0.00,278.0,WeatherDisplay:10.37,2013-01-11 16:58:00,
2013-01-11 11:03:00,66.3,64.8,29.94,SE,144,4.6,4.6,95,0.00,CLR,SKC,0.00,403.0,WeatherDisplay:10.37,2013-01-11 17:03:00,
2013-01-11 11:08:00,66.7,65.2,29.94,SE,134,4.6,4.6,95,0.00,CLR,SKC,0.00,480.0,WeatherDisplay:10.37,2013-01-11 17:08:00,
2013-01-11 11:13:00,67.2,65.7,29.93,SE,134,4.0,4.0,95,0.00,CLR,SKC,0.00,475.0,WeatherDisplay:10.37,2013-01-11 17:13:00,
2013-01-11 11:18:00,67.3,65.2,29.93,ESE,119,6.9,6.9,93,0.00,CLR,SKC,0.00,559.0,WeatherDisplay:10.37,2013-01-11 17:18:00,
2013-01-11 11:23:00,67.1,65.0,29.93,ESE,108,9.2,9.2,93,0.00,CLR,SKC,0.00,457.0,WeatherDisplay:10.37,2013-01-11 17:23:00,
2013-01-11 11:28:00,67.3,65.2,29.92,ESE,117,9.2,9.2,93,0.00,CLR,SKC,0.00,338.0,WeatherDisplay:10.37,2013-01-11 17:28:00,
2013-01-11 11:33:00,67.5,65.4,29.92,ESE,113,5.0,5.0,93,0.00,CLR,SKC,0.00,348.0,WeatherDisplay:10.37,2013-01-11 17:33:00,
2013-01-11 11:38:00,67.5,65.4,29.92,SE,130,5.8,5.8,93,0.00,CLR,SKC,0.00,288.0,WeatherDisplay:10.37,2013-01-11 17:38:00,
2013-01-11 11:43:00,67.5,65.4,29.91,SE,142,5.8,5.8,93,0.00,CLR,SKC,0.00,410.0,WeatherDisplay:10.37,2013-01-11 17:43:00,
2013-01-11 11:48:00,67.7,65.3,29.91,SE,146,11.5,11.5,92,0.00,CLR,SKC,0.00,610.0,WeatherDisplay:10.37,2013-01-11 17:48:00,
2013-01-11 11:53:00,68.1,66.0,29.91,SE,133,4.6,4.6,93,0.00,CLR,SKC,0.00,738.0,WeatherDisplay:10.37,2013-01-11 17:53:00,
2013-01-11 11:58:00,68.9,66.5,29.91,SE,133,10.4,10.4,92,0.00,CLR,SKC,0.00,480.0,WeatherDisplay:10.37,2013-01-11 17:58:00,
2013-01-11 12:03:00,69.3,66.6,29.91,ESE,111,5.8,6.4,91,0.00,CLR,SKC,0.00,468.0,WeatherDisplay:10.37,2013-01-11 18:03:00,
2013-01-11 12:08:00,69.3,66.6,29.91,SE,126,5.8,5.8,91,0.00,CLR,SKC,0.00,311.0,WeatherDisplay:10.37,2013-01-11 18:08:00,
2013-01-11 12:13:00,69.2,66.1,29.90,SSE,151,9.2,9.2,90,0.00,CLR,SKC,0.00,529.0,WeatherDisplay:10.37,2013-01-11 18:13:00,
2013-01-11 12:18:00,69.3,66.6,29.90,SSE,151,7.0,7.0,91,0.00,CLR,SKC,0.00,318.0,WeatherDisplay:10.37,2013-01-11 18:18:00,
2013-01-11 12:23:00,69.5,66.8,29.90,ESE,118,10.4,10.4,91,0.00,CLR,SKC,0.00,306.0,WeatherDisplay:10.37,2013-01-11 18:23:00,
2013-01-11 12:28:00,69.6,66.5,29.89,SE,131,9.2,9.2,90,0.00,CLR,SKC,0.00,478.0,WeatherDisplay:10.37,2013-01-11 18:28:00,
2013-01-11 12:33:00,69.2,66.1,29.89,SE,134,8.1,8.1,90,0.00,CLR,SKC,0.00,446.0,WeatherDisplay:10.37,2013-01-11 18:33:00,
2013-01-11 12:38:00,69.3,66.6,29.89,SE,132,5.8,5.8,91,0.00,CLR,SKC,0.00,397.0,WeatherDisplay:10.37,2013-01-11 18:38:00,
2013-01-11 12:43:00,69.4,66.7,29.88,SE,142,6.9,6.9,91,0.00,CLR,SKC,0.00,288.0,WeatherDisplay:10.37,2013-01-11 18:43:00,
2013-01-11 12:48:00,69.7,67.0,29.88,ESE,117,5.8,5.8,91,0.00,CLR,SKC,0.00,483.0,WeatherDisplay:10.37,2013-01-11 18:48:00,
2013-01-11 12:53:00,69.7,66.6,29.88,ESE,113,6.9,6.9,90,0.00,CLR,SKC,0.00,490.0,WeatherDisplay:10.37,2013-01-11 18:53:00,
2013-01-11 12:58:00,69.8,66.7,29.87,SE,138,10.4,10.4,90,0.00,CLR,SKC,0.00,461.0,WeatherDisplay:10.37,2013-01-11 18:58:00,
2013-01-11 13:03:00,70.0,66.9,29.87,SE,139,11.5,11.5,90,0.00,CLR,SKC,0.00,499.0,WeatherDisplay:10.37,2013-01-11 19:03:00,
2013-01-11 13:08:00,70.2,67.1,29.87,SSE,160,5.8,5.9,90,0.00,CLR,SKC,0.00,536.0,WeatherDisplay:10.37,2013-01-11 19:08:00,
2013-01-11 13:13:00,70.3,67.2,29.86,SE,128,5.8,5.8,90,0.00,CLR,SKC,0.00,448.0,WeatherDisplay:10.37,2013-01-11 19:13:00,
2013-01-11 13:18:00,70.2,67.1,29.86,SE,133,8.1,8.1,90,0.00,CLR,SKC,0.00,466.0,WeatherDisplay:10.37,2013-01-11 19:18:00,
2013-01-11 13:23:00,70.0,66.9,29.86,ESE,102,8.1,8.1,90,0.00,CLR,SKC,0.00,424.0,WeatherDisplay:10.37,2013-01-11 19:23:00,
2013-01-11 13:28:00,70.2,67.1,29.85,ESE,119,8.1,8.1,90,0.00,CLR,SKC,0.00,403.0,WeatherDisplay:10.37,2013-01-11 19:28:00,
2013-01-11 13:33:00,70.3,67.2,29.85,SSE,165,6.0,6.0,90,0.00,CLR,SKC,0.00,424.0,WeatherDisplay:10.37,2013-01-11 19:33:00,
2013-01-11 13:38:00,70.3,67.2,29.85,ESE,119,11.5,11.5,90,0.00,CLR,SKC,0.00,466.0,WeatherDisplay:10.37,2013-01-11 19:38:00,
2013-01-11 13:43:00,69.9,66.8,29.85,ESE,109,12.7,12.7,90,0.00,CLR,SKC,0.00,578.0,WeatherDisplay:10.37,2013-01-11 19:43:00,
2013-01-11 13:48:00,69.7,67.0,29.85,SE,128,11.5,11.5,91,0.00,CLR,SKC,0.00,603.0,WeatherDisplay:10.37,2013-01-11 19:48:00,
2013-01-11 13:53:00,69.5,66.4,29.85,ESE,121,12.7,12.7,90,0.00,CLR,SKC,0.00,598.0,WeatherDisplay:10.37,2013-01-11 19:53:00,
2013-01-11 13:58:00,69.3,66.6,29.84,SE,130,11.5,11.5,91,0.00,CLR,SKC,0.00,592.0,WeatherDisplay:10.37,2013-01-11 19:58:00,
2013-01-11 14:03:00,69.4,66.7,29.84,SE,137,10.4,10.4,91,0.00,CLR,SKC,0.00,568.0,WeatherDisplay:10.37,2013-01-11 20:03:00,
2013-01-11 14:08:00,69.8,67.1,29.84,ESE,117,11.5,11.5,91,0.00,CLR,SKC,0.00,589.0,WeatherDisplay:10.37,2013-01-11 20:08:00,
2013-01-11 14:13:00,70.1,67.3,29.83,ESE,121,9.2,9.2,91,0.00,CLR,SKC,0.00,561.0,WeatherDisplay:10.37,2013-01-11 20:13:00,
2013-01-11 14:18:00,70.2,67.4,29.83,ESE,121,10.4,10.4,91,0.00,CLR,SKC,0.00,589.0,WeatherDisplay:10.37,2013-01-11 20:18:00,
2013-01-11 14:23:00,70.2,67.4,29.83,ESE,123,11.5,11.5,91,0.00,CLR,SKC,0.00,265.0,WeatherDisplay:10.37,2013-01-11 20:23:00,
2013-01-11 14:28:00,69.7,66.6,29.83,ESE,102,11.5,11.5,90,0.00,CLR,SKC,0.00,199.0,WeatherDisplay:10.37,2013-01-11 20:28:00,
2013-01-11 14:33:00,69.0,66.3,29.83,ESE,112,13.8,13.8,91,0.00,CLR,SKC,0.00,309.0,WeatherDisplay:10.37,2013-01-11 20:33:00,
2013-01-11 14:38:00,68.6,66.2,29.83,SE,138,12.7,12.7,92,0.00,CLR,SKC,0.00,325.0,WeatherDisplay:10.37,2013-01-11 20:38:00,
2013-01-11 14:43:00,68.8,66.7,29.82,SE,130,11.5,11.5,93,0.00,CLR,SKC,0.00,359.0,WeatherDisplay:10.37,2013-01-11 20:43:00,
2013-01-11 14:48:00,68.6,66.5,29.82,ESE,116,11.5,11.5,93,0.00,CLR,SKC,0.00,171.0,WeatherDisplay:10.37,2013-01-11 20:48:00,
2013-01-11 14:53:00,68.6,66.5,29.82,SSE,147,13.8,13.8,93,0.00,CLR,SKC,0.00,220.0,WeatherDisplay:10.37,2013-01-11 20:53:00,
2013-01-11 14:58:00,68.4,66.3,29.82,ESE,106,12.7,12.7,93,0.00,CLR,SKC,0.00,237.0,WeatherDisplay:10.37,2013-01-11 20:58:00,
2013-01-11 15:03:00,68.3,66.2,29.82,ESE,114,11.5,11.5,93,0.00,CLR,SKC,0.00,227.0,WeatherDisplay:10.37,2013-01-11 21:03:00,
2013-01-11 15:08:00,68.2,66.1,29.82,SE,125,11.5,11.5,93,0.00,CLR,SKC,0.00,195.0,WeatherDisplay:10.37,2013-01-11 21:08:00,
2013-01-11 15:13:00,68.1,66.3,29.82,ESE,113,6.9,7.1,94,0.00,CLR,SKC,0.00,204.0,WeatherDisplay:10.37,2013-01-11 21:13:00,
2013-01-11 15:18:00,67.8,65.7,29.82,East,79,11.5,11.5,93,0.00,CLR,SKC,0.00,285.0,WeatherDisplay:10.37,2013-01-11 21:18:00,
2013-01-11 15:23:00,67.6,65.8,29.82,SE,143,11.5,11.5,94,0.00,CLR,SKC,0.00,279.0,WeatherDisplay:10.37,2013-01-11 21:23:00,
2013-01-11 15:28:00,67.6,65.8,29.82,East,91,9.2,9.2,94,0.00,CLR,SKC,0.00,244.0,WeatherDisplay:10.37,2013-01-11 21:28:00,
2013-01-11 15:33:00,67.5,65.7,29.82,ESE,107,10.4,10.4,94,0.01,RA,SKC,0.01,276.0,WeatherDisplay:10.37,2013-01-11 21:33:00,
2013-01-11 15:38:00,67.4,65.6,29.82,ESE,116,11.5,11.5,94,0.01,RA,SKC,0.01,322.0,WeatherDisplay:10.37,2013-01-11 21:38:00,
2013-01-11 15:43:00,67.6,65.8,29.82,ESE,116,9.2,9.2,94,0.01,CLR,SKC,0.01,466.0,WeatherDisplay:10.37,2013-01-11 21:43:00,
2013-01-11 15:48:00,67.9,66.1,29.82,ESE,115,10.4,10.4,94,0.01,CLR,SKC,0.01,425.0,WeatherDisplay:10.37,2013-01-11 21:48:00,
2013-01-11 15:53:00,68.3,66.5,29.82,ESE,109,11.5,11.5,94,0.01,CLR,SKC,0.01,369.0,WeatherDisplay:10.37,2013-01-11 21:53:00,
2013-01-11 15:58:00,68.4,66.6,29.82,ESE,118,11.5,11.5,94,0.01,CLR,SKC,0.01,353.0,WeatherDisplay:10.37,2013-01-11 21:58:00,
2013-01-11 16:03:00,68.3,66.5,29.82,ESE,120,12.7,12.7,94,0.01,CLR,SKC,0.01,229.0,WeatherDisplay:10.37,2013-01-11 22:03:00,
2013-01-11 16:08:00,68.2,66.4,29.82,SE,126,10.4,10.4,94,0.01,CLR,SKC,0.01,158.0,WeatherDisplay:10.37,2013-01-11 22:08:00,
2013-01-11 16:13:00,68.0,66.2,29.81,SE,124,10.4,10.4,94,0.01,CLR,SKC,0.01,192.0,WeatherDisplay:10.37,2013-01-11 22:13:00,
2013-01-11 16:18:00,67.9,66.1,29.81,East,96,11.5,11.5,94,0.01,CLR,SKC,0.01,179.0,WeatherDisplay:10.37,2013-01-11 22:18:00,
2013-01-11 16:23:00,67.8,66.0,29.81,ESE,119,9.2,9.2,94,0.01,CLR,SKC,0.01,176.0,WeatherDisplay:10.37,2013-01-11 22:23:00,
2013-01-11 16:28:00,67.8,66.0,29.81,SE,124,11.5,11.5,94,0.01,CLR,SKC,0.01,151.0,WeatherDisplay:10.37,2013-01-11 22:28:00,
2013-01-11 16:33:00,68.0,66.2,29.81,ESE,117,6.9,6.9,94,0.00,CLR,SKC,0.01,178.0,WeatherDisplay:10.37,2013-01-11 22:33:00,
2013-01-11 16:38:00,68.1,66.3,29.81,ESE,111,6.9,6.9,94,0.00,CLR,SKC,0.01,137.0,WeatherDisplay:10.37,2013-01-11 22:38:00,
2013-01-11 16:43:00,67.9,66.1,29.81,ESE,109,6.9,6.9,94,0.00,CLR,SKC,0.01,81.0,WeatherDisplay:10.37,2013-01-11 22:43:00,
2013-01-11 16:48:00,67.6,65.8,29.81,ESE,121,11.5,11.5,94,0.00,CLR,SKC,0.01,79.0,WeatherDisplay:10.37,2013-01-11 22:48:00,
2013-01-11 16:53:00,67.2,65.7,29.81,ESE,108,8.1,8.1,95,0.00,CLR,SKC,0.01,83.0,WeatherDisplay:10.37,2013-01-11 22:53:00,
2013-01-11 16:58:00,66.9,65.4,29.81,SE,128,5.0,5.0,95,0.00,CLR,SKC,0.01,72.0,WeatherDisplay:10.37,2013-01-11 22:58:00,
2013-01-11 17:03:00,66.6,65.1,29.81,SE,134,8.1,8.1,95,0.00,CLR,SKC,0.01,74.0,WeatherDisplay:10.37,2013-01-11 23:03:00,
2013-01-11 17:08:00,66.4,64.9,29.81,ESE,104,6.9,6.9,95,0.00,CLR,SKC,0.01,40.0,WeatherDisplay:10.37,2013-01-11 23:08:00,
2013-01-11 17:13:00,66.3,65.1,29.81,East,101,7.0,7.0,96,0.00,CLR,SKC,0.01,37.0,WeatherDisplay:10.37,2013-01-11 23:13:00,
2013-01-11 17:18:00,66.3,65.1,29.81,SE,124,5.8,5.8,96,0.00,CLR,SKC,0.01,40.0,WeatherDisplay:10.37,2013-01-11 23:18:00,
2013-01-11 17:23:00,66.2,65.0,29.81,East,97,4.6,4.6,96,0.00,CLR,SKC,0.01,32.0,WeatherDisplay:10.37,2013-01-11 23:23:00,
2013-01-11 17:28:00,66.1,64.9,29.81,SE,125,5.8,5.8,96,0.00,CLR,SKC,0.01,23.0,WeatherDisplay:10.37,2013-01-11 23:28:00,
2013-01-11 17:33:00,66.1,64.9,29.81,ESE,115,5.8,5.8,96,0.00,CLR,SKC,0.01,18.0,WeatherDisplay:10.37,2013-01-11 23:33:00,
2013-01-11 17:38:00,66.0,64.8,29.81,ESE,117,5.8,5.8,96,0.00,CLR,SKC,0.01,11.0,WeatherDisplay:10.37,2013-01-11 23:38:00,
2013-01-11 17:43:00,66.0,64.8,29.81,East,101,3.5,3.5,96,0.00,CLR,SKC,0.01,7.0,WeatherDisplay:10.37,2013-01-11 23:43:00,
2013-01-11 17:48:00,66.1,64.9,29.81,ESE,122,3.5,3.5,96,0.00,CLR,SKC,0.01,0.0,WeatherDisplay:10.37,2013-01-11 23:48:00,
2013-01-11 17:53:00,66.1,64.9,29.81,ESE,110,3.5,3.5,96,0.00,CLR,SKC,0.01,0.0,WeatherDisplay:10.37,2013-01-11 23:53:00,
2013-01-11 17:58:00,66.0,64.8,29.81,ESE,103,5.8,5.8,96,0.00,CLR,SKC,0.01,0.0,WeatherDisplay:10.37,2013-01-11 23:58:00,
2013-01-11 18:03:00,65.8,64.9,29.81,ESE,109,6.0,6.0,97,0.00,CLR,SKC,0.01,0.0,WeatherDisplay:10.37,2013-01-12 00:03:00,
2013-01-11 18:08:00,65.9,65.0,29.81,SE,146,5.8,5.8,97,0.00,CLR,SKC,0.01,0.0,WeatherDisplay:10.37,2013-01-12 00:08:00,
2013-01-11 18:13:00,66.1,65.2,29.80,ESE,108,4.6,4.6,97,0.00,CLR,SKC,0.01,0.0,WeatherDisplay:10.37,2013-01-12 00:13:00,
2013-01-11 18:18:00,66.2,65.3,29.80,ESE,117,5.8,5.8,97,0.00,CLR,SKC,0.01,0.0,WeatherDisplay:10.37,2013-01-12 00:18:00,
2013-01-11 18:23:00,66.2,65.3,29.80,East,101,5.0,5.0,97,0.00,CLR,SKC,0.01,0.0,WeatherDisplay:10.37,2013-01-12 00:23:00,
2013-01-11 18:28:00,66.3,65.4,29.80,ESE,110,4.6,4.6,97,0.00,CLR,SKC,0.01,0.0,WeatherDisplay:10.37,2013-01-12 00:28:00,
2013-01-11 18:33:00,66.3,65.4,29.80,SE,132,4.6,4.6,97,0.00,CLR,SKC,0.01,0.0,WeatherDisplay:10.37,2013-01-12 00:33:00,
2013-01-11 18:38:00,66.3,65.4,29.80,SE,128,5.8,5.8,97,0.00,CLR,SKC,0.01,0.0,WeatherDisplay:10.37,2013-01-12 00:38:00,
2013-01-11 18:43:00,66.5,65.6,29.80,ESE,111,6.9,6.9,97,0.00,CLR,SKC,0.01,0.0,WeatherDisplay:10.37,2013-01-12 00:43:00,
2013-01-11 18:48:00,66.6,65.7,29.80,ESE,118,6.9,6.9,97,0.00,CLR,SKC,0.01,0.0,WeatherDisplay:10.37,2013-01-12 00:48:00,
2013-01-11 18:53:00,66.5,65.6,29.80,SE,132,5.8,5.8,97,0.00,CLR,SKC,0.01,0.0,WeatherDisplay:10.37,2013-01-12 00:53:00,
2013-01-11 18:58:00,66.6,65.7,29.80,ESE,111,6.9,6.9,97,0.00,CLR,SKC,0.01,0.0,WeatherDisplay:10.37,2013-01-12 00:58:00,
2013-01-11 19:03:00,66.5,65.6,29.80,ESE,117,9.2,9.2,97,0.00,CLR,SKC,0.01,0.0,WeatherDisplay:10.37,2013-01-12 01:03:00,
2013-01-11 19:08:00,66.5,65.6,29.80,SE,136,10.4,10.4,97,0.00,CLR,SKC,0.01,0.0,WeatherDisplay:10.37,2013-01-12 01:08:00,
2013-01-11 19:13:00,66.2,65.3,29.80,ESE,107,10.4,10.4,97,0.00,CLR,SKC,0.01,0.0,WeatherDisplay:10.37,2013-01-12 01:13:00,
2013-01-11 19:18:00,66.1,65.2,29.80,ESE,115,10.4,10.4,97,0.00,CLR,SKC,0.01,0.0,WeatherDisplay:10.37,2013-01-12 01:18:00,
2013-01-11 19:23:00,66.1,65.5,29.80,SE,126,9.2,9.2,98,0.00,CLR,SKC,0.01,0.0,WeatherDisplay:10.37,2013-01-12 01:23:00,
2013-01-11 19:28:00,66.3,65.7,29.79,SE,131,9.2,9.2,98,0.00,CLR,SKC,0.01,0.0,WeatherDisplay:10.37,2013-01-12 01:28:00,
2013-01-11 19:33:00,66.6,66.0,29.79,SE,134,10.4,10.4,98,0.00,CLR,SKC,0.01,0.0,WeatherDisplay:10.37,2013-01-12 01:33:00,
2013-01-11 19:38:00,66.7,66.1,29.79,SE,142,6.9,6.9,98,0.00,CLR,SKC,0.01,0.0,WeatherDisplay:10.37,2013-01-12 01:38:00,
2013-01-11 19:43:00,66.5,65.9,29.81,East,96,6.0,6.0,98,0.00,CLR,SKC,0.01,0.0,WeatherDisplay:10.37,2013-01-12 01:43:00,
2013-01-11 19:48:00,66.3,65.4,29.81,SE,124,6.9,6.9,97,0.00,CLR,SKC,0.01,0.0,WeatherDisplay:10.37,2013-01-12 01:48:00,
2013-01-11 19:53:00,66.2,65.3,29.81,SE,128,6.0,6.0,97,0.00,CLR,SKC,0.01,0.0,WeatherDisplay:10.37,2013-01-12 01:53:00,
2013-01-11 19:58:00,66.3,65.7,29.81,SE,132,6.0,6.0,98,0.00,CLR,SKC,0.01,0.0,WeatherDisplay:10.37,2013-01-12 01:58:00,
2013-01-11 20:03:00,66.4,65.8,29.81,SE,138,9.2,9.2,98,0.00,CLR,SKC,0.01,0.0,WeatherDisplay:10.37,2013-01-12 02:03:00,
2013-01-11 20:08:00,66.4,65.8,29.81,ESE,119,5.8,5.8,98,0.00,CLR,SKC,0.01,0.0,WeatherDisplay:10.37,2013-01-12 02:08:00,
2013-01-11 20:13:00,66.4,65.8,29.82,SSE,148,5.0,5.0,98,0.00,CLR,SKC,0.01,0.0,WeatherDisplay:10.37,2013-01-12 02:13:00,
2013-01-11 20:18:00,66.3,65.7,29.82,SE,142,10.4,10.4,98,0.00,CLR,SKC,0.01,0.0,WeatherDisplay:10.37,2013-01-12 02:18:00,
2013-01-11 20:23:00,66.2,65.6,29.82,SE,138,5.8,5.8,98,0.00,CLR,SKC,0.01,0.0,WeatherDisplay:10.37,2013-01-12 02:23:00,
2013-01-11 20:28:00,66.2,65.6,29.82,SSE,152,4.6,4.6,98,0.00,CLR,SKC,0.01,0.0,WeatherDisplay:10.37,2013-01-12 02:28:00,
2013-01-11 20:33:00,66.2,65.6,29.82,South,171,6.9,6.9,98,0.00,CLR,SKC,0.01,0.0,WeatherDisplay:10.37,2013-01-12 02:33:00,
2013-01-11 20:38:00,66.1,65.5,29.82,SSE,152,6.9,6.9,98,0.00,CLR,SKC,0.01,0.0,WeatherDisplay:10.37,2013-01-12 02:38:00,
2013-01-11 20:43:00,66.3,65.7,29.82,SSW,199,5.8,5.8,98,0.00,CLR,SKC,0.01,0.0,WeatherDisplay:10.37,2013-01-12 02:43:00,
2013-01-11 20:48:00,66.5,65.9,29.82,SSE,153,4.6,4.6,98,0.00,CLR,SKC,0.01,0.0,WeatherDisplay:10.37,2013-01-12 02:48:00,
2013-01-11 20:53:00,66.5,65.9,29.82,SE,142,11.0,11.0,98,0.00,CLR,SKC,0.01,0.0,WeatherDisplay:10.37,2013-01-12 02:53:00,
2013-01-11 20:58:00,66.7,66.1,29.81,SE,138,10.4,10.4,98,0.00,CLR,SKC,0.01,0.0,WeatherDisplay:10.37,2013-01-12 02:58:00,
2013-01-11 21:03:00,66.7,66.1,29.81,SE,145,6.9,6.9,98,0.00,CLR,SKC,0.01,0.0,WeatherDisplay:10.37,2013-01-12 03:03:00,
2013-01-11 21:08:00,66.7,66.1,29.81,East,101,8.1,8.1,98,0.00,CLR,SKC,0.01,0.0,WeatherDisplay:10.37,2013-01-12 03:08:00,
2013-01-11 21:13:00,66.7,66.1,29.81,SSE,149,6.9,6.9,98,0.00,CLR,SKC,0.01,0.0,WeatherDisplay:10.37,2013-01-12 03:13:00,
2013-01-11 21:18:00,66.4,65.8,29.81,SE,130,10.4,10.4,98,0.00,CLR,SKC,0.01,0.0,WeatherDisplay:10.37,2013-01-12 03:18:00,
2013-01-11 21:23:00,66.2,65.6,29.81,SE,130,11.5,11.5,98,0.00,CLR,SKC,0.01,0.0,WeatherDisplay:10.37,2013-01-12 03:23:00,
2013-01-11 21:28:00,66.1,65.5,29.81,ESE,107,11.5,11.5,98,0.00,CLR,SKC,0.01,0.0,WeatherDisplay:10.37,2013-01-12 03:28:00,
2013-01-11 21:33:00,66.0,65.4,29.81,SE,128,10.4,10.4,98,0.00,CLR,SKC,0.01,0.0,WeatherDisplay:10.37,2013-01-12 03:33:00,
2013-01-11 21:38:00,66.1,65.5,29.81,SE,143,6.9,6.9,98,0.00,CLR,SKC,0.01,0.0,WeatherDisplay:10.37,2013-01-12 03:38:00,
2013-01-11 21:43:00,66.2,65.6,29.81,ESE,120,9.2,9.2,98,0.00,CLR,SKC,0.01,0.0,WeatherDisplay:10.37,2013-01-12 03:43:00,
2013-01-11 21:48:00,66.2,65.6,29.81,SE,130,9.2,9.2,98,0.00,CLR,SKC,0.01,0.0,WeatherDisplay:10.37,2013-01-12 03:48:00,
2013-01-11 21:53:00,66.5,65.9,29.81,SSW,198,10.4,10.4,98,0.00,CLR,SKC,0.01,0.0,WeatherDisplay:10.37,2013-01-12 03:53:00,
2013-01-11 21:58:00,66.5,65.9,29.82,South,189,9.2,9.2,98,0.00,CLR,SKC,0.01,0.0,WeatherDisplay:10.37,2013-01-12 03:58:00,
2013-01-11 22:03:00,66.7,66.1,29.82,SSE,153,11.5,11.5,98,0.00,CLR,SKC,0.01,0.0,WeatherDisplay:10.37,2013-01-12 04:03:00,
2013-01-11 22:08:00,66.8,66.2,29.82,SE,136,9.2,9.2,98,0.00,CLR,SKC,0.01,0.0,WeatherDisplay:10.37,2013-01-12 04:08:00,
2013-01-11 22:13:00,66.8,66.2,29.82,SE,146,7.0,7.0,98,0.00,CLR,SKC,0.01,0.0,WeatherDisplay:10.37,2013-01-12 04:13:00,
2013-01-11 22:18:00,66.7,66.1,29.82,SSE,162,5.8,5.8,98,0.00,CLR,SKC,0.01,0.0,WeatherDisplay:10.37,2013-01-12 04:18:00,
2013-01-11 22:23:00,66.6,66.0,29.82,ESE,119,6.9,6.9,98,0.00,CLR,SKC,0.01,0.0,WeatherDisplay:10.37,2013-01-12 04:23:00,
2013-01-11 22:28:00,66.5,65.9,29.83,SE,128,3.5,3.5,98,0.00,CLR,SKC,0.01,0.0,WeatherDisplay:10.37,2013-01-12 04:28:00,
2013-01-11 22:33:00,66.4,65.8,29.83,South,186,4.6,4.6,98,0.00,CLR,SKC,0.01,0.0,WeatherDisplay:10.37,2013-01-12 04:33:00,
2013-01-11 22:38:00,66.3,65.7,29.83,SSE,153,3.5,3.5,98,0.00,CLR,SKC,0.01,0.0,WeatherDisplay:10.37,2013-01-12 04:38:00,
2013-01-11 22:43:00,66.2,65.6,29.84,SSE,163,1.1,1.1,98,0.00,CLR,SKC,0.01,0.0,WeatherDisplay:10.37,2013-01-12 04:43:00,
2013-01-11 22:48:00,66.2,65.6,29.84,SSE,151,1.1,1.2,98,0.00,CLR,SKC,0.01,0.0,WeatherDisplay:10.37,2013-01-12 04:48:00,
2013-01-11 22:53:00,66.2,65.6,29.84,SSE,156,3.5,3.5,98,0.00,CLR,SKC,0.01,0.0,WeatherDisplay:10.37,2013-01-12 04:53:00,
2013-01-11 22:58:00,66.2,65.6,29.84,SE,141,3.5,3.5,98,0.00,CLR,SKC,0.01,0.0,WeatherDisplay:10.37,2013-01-12 04:58:00,
2013-01-11 23:01:00,66.3,65.7,29.84,SSE,161,4.6,4.6,98,0.00,OVC,SKC,0.01,0.0,WeatherDisplay:10.37,2013-01-12 05:01:00,
2013-01-11 23:06:00,66.5,65.9,29.84,SSE,166,4.6,4.6,98,0.00,CLR,SKC,0.01,0.0,WeatherDisplay:10.37,2013-01-12 05:06:00,
2013-01-11 23:11:00,66.5,65.9,29.83,SE,134,5.8,5.8,98,0.00,CLR,SKC,0.01,0.0,WeatherDisplay:10.37,2013-01-12 05:11:00,
2013-01-11 23:16:00,66.5,65.9,29.83,SE,125,5.8,5.8,98,0.00,CLR,SKC,0.01,0.0,WeatherDisplay:10.37,2013-01-12 05:16:00,
2013-01-11 23:21:00,66.6,66.0,29.83,SE,139,9.2,9.2,98,0.00,CLR,SKC,0.01,0.0,WeatherDisplay:10.37,2013-01-12 05:21:00,
2013-01-11 23:26:00,66.7,66.1,29.83,SSE,156,8.1,8.1,98,0.00,CLR,SKC,0.01,0.0,WeatherDisplay:10.37,2013-01-12 05:26:00,
2013-01-11 23:31:00,66.7,66.1,29.83,SE,125,8.0,8.0,98,0.00,CLR,SKC,0.01,0.0,WeatherDisplay:10.37,2013-01-12 05:31:00,
2013-01-11 23:36:00,66.7,66.1,29.83,SE,140,4.6,4.6,98,0.00,CLR,SKC,0.01,0.0,WeatherDisplay:10.37,2013-01-12 05:36:00,
2013-01-11 23:41:00,66.8,66.2,29.82,SSE,161,5.0,5.0,98,0.00,CLR,SKC,0.01,0.0,WeatherDisplay:10.37,2013-01-12 05:41:00,
2013-01-11 23:46:00,66.8,66.2,29.82,South,172,5.8,5.8,98,0.00,CLR,SKC,0.01,0.0,WeatherDisplay:10.37,2013-01-12 05:46:00,
2013-01-11 23:51:00,66.7,66.1,29.82,SSE,149,6.0,6.0,98,0.00,CLR,SKC,0.01,0.0,WeatherDisplay:10.37,2013-01-12 05:51:00,
2013-01-11 23:56:00,66.7,66.1,29.82,SSE,157,7.0,7.0,98,0.00,CLR,SKC,0.01,0.0,WeatherDisplay:10.37,2013-01-12 05:56:00,